Aérodrome :
LOGIN :

S'inscrire | Disclaimer

   EN    FR    IT 

 










Légende :    VFR   VFR Marginal   IFR   IFR Intensif   IFR Très Intensif
Visi : 
Plafond : 
>= 8 km
>= 3000ft
5 à 8 km
1000 à 3000 ft
1500m à 5 km
500 à 1000 ft
800 à 1500m
200 à 500 ft
< 800m
< 200 ft
Symboles :   Orages  Brouillard  Fortes neiges  Fortes précipitations  Vent > 20 kt
SIGMETs :   Divers  Orages  Givrage  Turbulence  Onde Orograph.  Cendres Volcan.






- Altitude de l'aérodrome : 219 ft
- Code IATA : DNR


LFRD - Dinard

DERNIER METAR :
  • 140530Z AUTO 24006KT 9999 OVC009 18/17 Q1014 BECMG BKN020

METARs EXPIRÉS :
  • 140500Z AUTO 23005KT 9999 OVC009 18/18 Q1014 TEMPO 4000 RADZ BECMG BKN020
  • 140430Z AUTO 24005KT 9999 OVC009 18/18 Q1014 TEMPO 4000 RADZ BECMG BKN020
  • 140400Z AUTO 24004KT 7000 OVC008 18/18 Q1014 TEMPO 4000 RADZ BKN004
  • 140330Z AUTO 25004KT 230V290 5000 BR BKN006 OVC012 19/18 Q1014 TEMPO RADZ BKN004
  • 140300Z AUTO 24003KT 3900 DZ BR OVC004 18/18 Q1014 TEMPO RADZ

TAF TAF LFRD
Valide du 14 à 06h jusqu'au 15 à 06h UTC


140500Z 1406/1506 27010KT 5000 BR BKN009
BECMG 1406/1409 9999 NSW BKN020
BECMG 1410/1412 32010KT
BECMG 1418/1421 VRB05KT
BECMG 1500/1502 3000 BR NSC
TEMPO 1502/1506 0500 FG
ATIS : +33 2 99 16 81 50



MET'MAP, la Météo Aéronautique d'un coup d'oeil ! - Copyright ORBIFLY Décembre 2007 - Disclaimer

ORBIFLY MET'MAP TEAM :

Programmation & Développement : Alexandra Zaïnal
Sur une idée originale de : Baudouin d'Aumeries
Assistance à la programmation : Marc-Olivier Méhu
Soutien technique & logistique : Manuel Goepfert

Contact : metmap@orbifly.com




SOURCES & CREDITS :

   NOAA